TAF Text Data
IDs:
Format:
Raw Decoded Include METAR

Data at: 1256 UTC 17 Sep 2019

KPDK 171120Z 1712/1812 00000KT P6SM SKC
  FM171500 33005KT P6SM SKC
  FM171800 31007KT P6SM SCT070 SCT250
  FM180100 VRB03KT P6SM SCT080 SCT250
  FM181000 05005KT P6SM FEW025 SCT050